sensor_id;sensor_type;location;lat;lon;timestamp;P1;durP1;ratioP1;P2;durP2;ratioP2
5923;SDS011;2987;50.884;14.818;2022-08-19T00:01:39;16.40;;;11.30;;
5923;SDS011;2987;50.884;14.818;2022-08-19T00:04:08;12.70;;;10.73;;
5923;SDS011;2987;50.884;14.818;2022-08-19T00:06:37;12.43;;;11.00;;
5923;SDS011;2987;50.884;14.818;2022-08-19T00:09:06;17.57;;;10.43;;
5923;SDS011;2987;50.884;14.818;2022-08-19T00:11:34;10.73;;;9.60;;
5923;SDS011;2987;50.884;14.818;2022-08-19T00:14:04;9.50;;;8.47;;
5923;SDS011;2987;50.884;14.818;2022-08-19T00:16:34;15.70;;;9.10;;
5923;SDS011;2987;50.884;14.818;2022-08-19T00:19:04;12.07;;;8.10;;
5923;SDS011;2987;50.884;14.818;2022-08-19T00:21:34;10.83;;;6.77;;
5923;SDS011;2987;50.884;14.818;2022-08-19T00:24:06;12.57;;;7.17;;
5923;SDS011;2987;50.884;14.818;2022-08-19T00:26:36;8.63;;;7.73;;
5923;SDS011;2987;50.884;14.818;2022-08-19T00:29:03;9.77;;;6.03;;
5923;SDS011;2987;50.884;14.818;2022-08-19T00:31:31;7.27;;;5.37;;
5923;SDS011;2987;50.884;14.818;2022-08-19T00:33:57;6.47;;;3.57;;
5923;SDS011;2987;50.884;14.818;2022-08-19T00:36:24;5.97;;;3.23;;
5923;SDS011;2987;50.884;14.818;2022-08-19T00:38:51;10.93;;;2.63;;
5923;SDS011;2987;50.884;14.818;2022-08-19T00:41:19;8.93;;;2.70;;
5923;SDS011;2987;50.884;14.818;2022-08-19T00:44:06;6.23;;;2.87;;
5923;SDS011;2987;50.884;14.818;2022-08-19T00:46:39;6.43;;;2.60;;
5923;SDS011;2987;50.884;14.818;2022-08-19T00:49:11;2.93;;;2.33;;
5923;SDS011;2987;50.884;14.818;2022-08-19T00:51:46;8.63;;;2.90;;
5923;SDS011;2987;50.884;14.818;2022-08-19T00:54:15;5.53;;;2.80;;
5923;SDS011;2987;50.884;14.818;2022-08-19T00:56:43;10.43;;;3.30;;
5923;SDS011;2987;50.884;14.818;2022-08-19T00:59:11;6.57;;;3.93;;
5923;SDS011;2987;50.884;14.818;2022-08-19T01:01:39;5.57;;;4.30;;
5923;SDS011;2987;50.884;14.818;2022-08-19T01:04:07;7.83;;;4.13;;
5923;SDS011;2987;50.884;14.818;2022-08-19T01:06:35;7.80;;;3.50;;
5923;SDS011;2987;50.884;14.818;2022-08-19T01:09:03;4.83;;;3.43;;
5923;SDS011;2987;50.884;14.818;2022-08-19T01:11:33;6.27;;;3.67;;
5923;SDS011;2987;50.884;14.818;2022-08-19T01:14:02;10.13;;;3.50;;
5923;SDS011;2987;50.884;14.818;2022-08-19T01:16:29;6.23;;;3.20;;
5923;SDS011;2987;50.884;14.818;2022-08-19T01:18:57;4.70;;;3.20;;
5923;SDS011;2987;50.884;14.818;2022-08-19T01:21:26;9.70;;;3.63;;
5923;SDS011;2987;50.884;14.818;2022-08-19T01:24:13;7.33;;;3.00;;
5923;SDS011;2987;50.884;14.818;2022-08-19T01:26:41;7.00;;;3.03;;
5923;SDS011;2987;50.884;14.818;2022-08-19T01:29:09;4.63;;;2.60;;
5923;SDS011;2987;50.884;14.818;2022-08-19T01:31:36;5.00;;;2.53;;
5923;SDS011;2987;50.884;14.818;2022-08-19T01:34:04;5.37;;;3.00;;
5923;SDS011;2987;50.884;14.818;2022-08-19T01:36:32;6.13;;;2.87;;
5923;SDS011;2987;50.884;14.818;2022-08-19T01:39:06;6.63;;;2.70;;
5923;SDS011;2987;50.884;14.818;2022-08-19T01:41:36;6.57;;;2.50;;
5923;SDS011;2987;50.884;14.818;2022-08-19T01:44:03;7.43;;;2.80;;
5923;SDS011;2987;50.884;14.818;2022-08-19T01:46:31;4.97;;;2.33;;
5923;SDS011;2987;50.884;14.818;2022-08-19T01:48:58;4.57;;;2.60;;
5923;SDS011;2987;50.884;14.818;2022-08-19T01:51:26;9.23;;;2.63;;
5923;SDS011;2987;50.884;14.818;2022-08-19T01:53:53;5.23;;;2.43;;
5923;SDS011;2987;50.884;14.818;2022-08-19T01:56:20;9.03;;;2.40;;
5923;SDS011;2987;50.884;14.818;2022-08-19T01:58:50;7.17;;;2.67;;
5923;SDS011;2987;50.884;14.818;2022-08-19T02:01:20;8.83;;;2.47;;
5923;SDS011;2987;50.884;14.818;2022-08-19T02:03:47;4.47;;;2.50;;
5923;SDS011;2987;50.884;14.818;2022-08-19T02:06:13;11.50;;;2.67;;
5923;SDS011;2987;50.884;14.818;2022-08-19T02:08:41;9.80;;;2.50;;
5923;SDS011;2987;50.884;14.818;2022-08-19T02:11:07;6.93;;;2.70;;
5923;SDS011;2987;50.884;14.818;2022-08-19T02:13:34;6.83;;;3.10;;
5923;SDS011;2987;50.884;14.818;2022-08-19T02:16:00;6.50;;;2.93;;
5923;SDS011;2987;50.884;14.818;2022-08-19T02:18:26;5.23;;;2.67;;
5923;SDS011;2987;50.884;14.818;2022-08-19T02:20:53;6.80;;;2.93;;
5923;SDS011;2987;50.884;14.818;2022-08-19T02:23:20;9.40;;;5.30;;
5923;SDS011;2987;50.884;14.818;2022-08-19T02:25:47;7.30;;;5.53;;
5923;SDS011;2987;50.884;14.818;2022-08-19T02:28:14;14.50;;;7.13;;
5923;SDS011;2987;50.884;14.818;2022-08-19T02:30:41;8.07;;;6.50;;
5923;SDS011;2987;50.884;14.818;2022-08-19T02:33:09;8.53;;;7.83;;
5923;SDS011;2987;50.884;14.818;2022-08-19T02:35:35;11.53;;;9.27;;
5923;SDS011;2987;50.884;14.818;2022-08-19T02:38:02;11.33;;;10.37;;
5923;SDS011;2987;50.884;14.818;2022-08-19T02:40:49;11.97;;;10.73;;
5923;SDS011;2987;50.884;14.818;2022-08-19T02:43:18;13.37;;;9.90;;
5923;SDS011;2987;50.884;14.818;2022-08-19T02:45:45;14.23;;;10.63;;
5923;SDS011;2987;50.884;14.818;2022-08-19T02:48:12;15.20;;;12.00;;
5923;SDS011;2987;50.884;14.818;2022-08-19T02:50:41;15.27;;;13.77;;
5923;SDS011;2987;50.884;14.818;2022-08-19T02:53:08;14.73;;;13.20;;
5923;SDS011;2987;50.884;14.818;2022-08-19T02:55:36;14.77;;;13.27;;
5923;SDS011;2987;50.884;14.818;2022-08-19T02:58:09;16.10;;;14.43;;
5923;SDS011;2987;50.884;14.818;2022-08-19T03:00:40;15.77;;;14.07;;
5923;SDS011;2987;50.884;14.818;2022-08-19T03:03:11;15.43;;;13.80;;
5923;SDS011;2987;50.884;14.818;2022-08-19T03:05:38;15.70;;;14.10;;
5923;SDS011;2987;50.884;14.818;2022-08-19T03:08:05;16.27;;;14.50;;
5923;SDS011;2987;50.884;14.818;2022-08-19T03:10:39;16.30;;;14.57;;
5923;SDS011;2987;50.884;14.818;2022-08-19T03:13:10;16.17;;;14.57;;
5923;SDS011;2987;50.884;14.818;2022-08-19T03:15:39;18.77;;;14.63;;
5923;SDS011;2987;50.884;14.818;2022-08-19T03:18:09;17.10;;;15.33;;
5923;SDS011;2987;50.884;14.818;2022-08-19T03:20:52;20.70;;;15.30;;
5923;SDS011;2987;50.884;14.818;2022-08-19T03:23:20;15.87;;;14.27;;
5923;SDS011;2987;50.884;14.818;2022-08-19T03:25:47;15.73;;;13.60;;
5923;SDS011;2987;50.884;14.818;2022-08-19T03:28:15;16.17;;;14.57;;
5923;SDS011;2987;50.884;14.818;2022-08-19T03:30:43;14.33;;;12.93;;
5923;SDS011;2987;50.884;14.818;2022-08-19T03:33:22;18.17;;;16.40;;
5923;SDS011;2987;50.884;14.818;2022-08-19T03:36:07;18.90;;;15.40;;
5923;SDS011;2987;50.884;14.818;2022-08-19T03:38:37;18.40;;;16.57;;
5923;SDS011;2987;50.884;14.818;2022-08-19T03:41:09;20.53;;;17.27;;
5923;SDS011;2987;50.884;14.818;2022-08-19T03:43:37;20.50;;;17.90;;
5923;SDS011;2987;50.884;14.818;2022-08-19T03:46:10;22.13;;;17.87;;
5923;SDS011;2987;50.884;14.818;2022-08-19T03:48:38;18.23;;;16.43;;
5923;SDS011;2987;50.884;14.818;2022-08-19T03:51:06;19.70;;;17.83;;
5923;SDS011;2987;50.884;14.818;2022-08-19T03:53:34;22.47;;;18.77;;
5923;SDS011;2987;50.884;14.818;2022-08-19T03:56:01;18.40;;;16.33;;
5923;SDS011;2987;50.884;14.818;2022-08-19T03:58:28;19.67;;;16.87;;
5923;SDS011;2987;50.884;14.818;2022-08-19T04:00:55;22.23;;;19.50;;
5923;SDS011;2987;50.884;14.818;2022-08-19T04:03:23;21.13;;;18.93;;
5923;SDS011;2987;50.884;14.818;2022-08-19T04:05:50;19.10;;;16.27;;
5923;SDS011;2987;50.884;14.818;2022-08-19T04:08:16;26.00;;;19.67;;
5923;SDS011;2987;50.884;14.818;2022-08-19T04:10:46;18.87;;;17.07;;
5923;SDS011;2987;50.884;14.818;2022-08-19T04:13:14;19.70;;;17.80;;
5923;SDS011;2987;50.884;14.818;2022-08-19T04:15:43;17.37;;;15.73;;
5923;SDS011;2987;50.884;14.818;2022-08-19T04:18:12;18.53;;;16.63;;
5923;SDS011;2987;50.884;14.818;2022-08-19T04:20:40;21.37;;;18.30;;
5923;SDS011;2987;50.884;14.818;2022-08-19T04:23:08;21.63;;;19.60;;
5923;SDS011;2987;50.884;14.818;2022-08-19T04:25:35;22.33;;;19.63;;
5923;SDS011;2987;50.884;14.818;2022-08-19T04:28:03;16.87;;;15.27;;
5923;SDS011;2987;50.884;14.818;2022-08-19T04:30:29;18.73;;;16.30;;
5923;SDS011;2987;50.884;14.818;2022-08-19T04:32:56;15.80;;;14.20;;
5923;SDS011;2987;50.884;14.818;2022-08-19T04:35:22;20.80;;;16.67;;
5923;SDS011;2987;50.884;14.818;2022-08-19T04:37:48;15.23;;;13.93;;
5923;SDS011;2987;50.884;14.818;2022-08-19T04:40:15;16.40;;;14.70;;
5923;SDS011;2987;50.884;14.818;2022-08-19T04:43:01;16.23;;;14.63;;
5923;SDS011;2987;50.884;14.818;2022-08-19T04:45:27;18.97;;;17.07;;
5923;SDS011;2987;50.884;14.818;2022-08-19T04:47:54;24.97;;;17.80;;
5923;SDS011;2987;50.884;14.818;2022-08-19T04:50:21;18.73;;;16.73;;
5923;SDS011;2987;50.884;14.818;2022-08-19T04:52:49;18.97;;;16.63;;
5923;SDS011;2987;50.884;14.818;2022-08-19T04:55:16;17.57;;;15.33;;
5923;SDS011;2987;50.884;14.818;2022-08-19T04:57:43;30.00;;;17.40;;
5923;SDS011;2987;50.884;14.818;2022-08-19T05:00:10;19.80;;;16.07;;
5923;SDS011;2987;50.884;14.818;2022-08-19T05:02:37;22.33;;;16.27;;
5923;SDS011;2987;50.884;14.818;2022-08-19T05:05:04;16.87;;;15.13;;
5923;SDS011;2987;50.884;14.818;2022-08-19T05:07:32;16.53;;;14.93;;
5923;SDS011;2987;50.884;14.818;2022-08-19T05:09:58;15.77;;;14.07;;
5923;SDS011;2987;50.884;14.818;2022-08-19T05:12:24;14.47;;;13.17;;
5923;SDS011;2987;50.884;14.818;2022-08-19T05:14:53;20.87;;;15.77;;
5923;SDS011;2987;50.884;14.818;2022-08-19T05:17:20;19.47;;;15.30;;
5923;SDS011;2987;50.884;14.818;2022-08-19T05:19:46;16.20;;;14.50;;
5923;SDS011;2987;50.884;14.818;2022-08-19T05:22:32;11.70;;;10.53;;
5923;SDS011;2987;50.884;14.818;2022-08-19T05:24:58;10.73;;;9.30;;
5923;SDS011;2987;50.884;14.818;2022-08-19T05:27:24;11.33;;;9.27;;
5923;SDS011;2987;50.884;14.818;2022-08-19T05:29:50;12.10;;;7.23;;
5923;SDS011;2987;50.884;14.818;2022-08-19T05:32:17;12.33;;;7.43;;
5923;SDS011;2987;50.884;14.818;2022-08-19T05:34:43;8.37;;;7.57;;
5923;SDS011;2987;50.884;14.818;2022-08-19T05:37:09;10.03;;;8.00;;
5923;SDS011;2987;50.884;14.818;2022-08-19T05:39:36;11.80;;;7.87;;
5923;SDS011;2987;50.884;14.818;2022-08-19T05:42:04;11.77;;;8.00;;
5923;SDS011;2987;50.884;14.818;2022-08-19T05:44:35;11.13;;;7.93;;
5923;SDS011;2987;50.884;14.818;2022-08-19T05:47:05;10.50;;;8.27;;
5923;SDS011;2987;50.884;14.818;2022-08-19T05:49:34;9.77;;;8.40;;
5923;SDS011;2987;50.884;14.818;2022-08-19T05:52:04;11.40;;;7.87;;
5923;SDS011;2987;50.884;14.818;2022-08-19T05:54:32;10.67;;;7.83;;
5923;SDS011;2987;50.884;14.818;2022-08-19T05:57:01;11.43;;;7.77;;
5923;SDS011;2987;50.884;14.818;2022-08-19T05:59:28;13.53;;;7.03;;
5923;SDS011;2987;50.884;14.818;2022-08-19T06:01:55;10.10;;;7.80;;
5923;SDS011;2987;50.884;14.818;2022-08-19T06:04:22;11.10;;;7.80;;
5923;SDS011;2987;50.884;14.818;2022-08-19T06:06:50;10.97;;;7.77;;
5923;SDS011;2987;50.884;14.818;2022-08-19T06:09:18;12.07;;;8.43;;
5923;SDS011;2987;50.884;14.818;2022-08-19T06:11:47;11.37;;;8.50;;
5923;SDS011;2987;50.884;14.818;2022-08-19T06:14:20;14.33;;;9.80;;
5923;SDS011;2987;50.884;14.818;2022-08-19T06:16:48;12.97;;;10.20;;
5923;SDS011;2987;50.884;14.818;2022-08-19T06:19:18;19.23;;;9.90;;
5923;SDS011;2987;50.884;14.818;2022-08-19T06:21:48;10.20;;;9.20;;
5923;SDS011;2987;50.884;14.818;2022-08-19T06:24:20;12.53;;;9.23;;
5923;SDS011;2987;50.884;14.818;2022-08-19T06:26:50;14.87;;;9.27;;
5923;SDS011;2987;50.884;14.818;2022-08-19T06:29:19;14.83;;;9.63;;
5923;SDS011;2987;50.884;14.818;2022-08-19T06:31:48;21.37;;;9.87;;
5923;SDS011;2987;50.884;14.818;2022-08-19T06:34:17;10.70;;;9.60;;
5923;SDS011;2987;50.884;14.818;2022-08-19T06:36:46;11.03;;;9.80;;
5923;SDS011;2987;50.884;14.818;2022-08-19T06:39:15;14.83;;;9.73;;
5923;SDS011;2987;50.884;14.818;2022-08-19T06:41:45;14.43;;;10.10;;
5923;SDS011;2987;50.884;14.818;2022-08-19T06:44:19;13.73;;;9.93;;
5923;SDS011;2987;50.884;14.818;2022-08-19T06:46:47;14.77;;;11.27;;
5923;SDS011;2987;50.884;14.818;2022-08-19T06:49:14;12.20;;;10.43;;
5923;SDS011;2987;50.884;14.818;2022-08-19T06:51:42;15.27;;;11.33;;
5923;SDS011;2987;50.884;14.818;2022-08-19T06:54:13;13.03;;;11.63;;
5923;SDS011;2987;50.884;14.818;2022-08-19T06:56:41;22.70;;;12.67;;
5923;SDS011;2987;50.884;14.818;2022-08-19T06:59:08;14.07;;;10.97;;
5923;SDS011;2987;50.884;14.818;2022-08-19T07:01:38;15.57;;;11.83;;
5923;SDS011;2987;50.884;14.818;2022-08-19T07:04:06;16.73;;;11.40;;
5923;SDS011;2987;50.884;14.818;2022-08-19T07:06:34;16.20;;;11.40;;
5923;SDS011;2987;50.884;14.818;2022-08-19T07:09:02;14.97;;;12.63;;
5923;SDS011;2987;50.884;14.818;2022-08-19T07:11:32;15.83;;;14.20;;
5923;SDS011;2987;50.884;14.818;2022-08-19T07:13:58;16.60;;;13.83;;
5923;SDS011;2987;50.884;14.818;2022-08-19T07:16:26;16.30;;;14.60;;
5923;SDS011;2987;50.884;14.818;2022-08-19T07:18:53;18.23;;;15.90;;
5923;SDS011;2987;50.884;14.818;2022-08-19T07:21:23;19.20;;;17.30;;
5923;SDS011;2987;50.884;14.818;2022-08-19T07:23:53;20.27;;;18.00;;
5923;SDS011;2987;50.884;14.818;2022-08-19T07:26:23;21.57;;;19.40;;
5923;SDS011;2987;50.884;14.818;2022-08-19T07:28:53;21.07;;;18.93;;
5923;SDS011;2987;50.884;14.818;2022-08-19T07:31:22;21.33;;;18.83;;
5923;SDS011;2987;50.884;14.818;2022-08-19T07:33:51;22.10;;;19.63;;
5923;SDS011;2987;50.884;14.818;2022-08-19T07:36:24;26.37;;;19.97;;
5923;SDS011;2987;50.884;14.818;2022-08-19T07:38:56;21.83;;;19.60;;
5923;SDS011;2987;50.884;14.818;2022-08-19T07:41:24;22.87;;;19.23;;
5923;SDS011;2987;50.884;14.818;2022-08-19T07:43:54;22.07;;;18.70;;
5923;SDS011;2987;50.884;14.818;2022-08-19T07:46:21;21.17;;;18.97;;
5923;SDS011;2987;50.884;14.818;2022-08-19T07:48:48;21.50;;;18.60;;
5923;SDS011;2987;50.884;14.818;2022-08-19T07:51:16;26.77;;;19.17;;
5923;SDS011;2987;50.884;14.818;2022-08-19T07:53:45;20.80;;;18.40;;
5923;SDS011;2987;50.884;14.818;2022-08-19T07:56:13;21.80;;;17.23;;
5923;SDS011;2987;50.884;14.818;2022-08-19T07:58:42;21.07;;;18.67;;
5923;SDS011;2987;50.884;14.818;2022-08-19T08:01:12;22.03;;;18.73;;
5923;SDS011;2987;50.884;14.818;2022-08-19T08:03:41;19.90;;;17.50;;
5923;SDS011;2987;50.884;14.818;2022-08-19T08:06:28;22.10;;;18.27;;
5923;SDS011;2987;50.884;14.818;2022-08-19T08:09:14;25.50;;;18.93;;
5923;SDS011;2987;50.884;14.818;2022-08-19T08:11:46;20.23;;;18.30;;
5923;SDS011;2987;50.884;14.818;2022-08-19T08:14:18;20.17;;;18.13;;
5923;SDS011;2987;50.884;14.818;2022-08-19T08:16:46;22.33;;;17.70;;
5923;SDS011;2987;50.884;14.818;2022-08-19T08:19:17;19.73;;;17.63;;
5923;SDS011;2987;50.884;14.818;2022-08-19T08:21:46;20.50;;;18.37;;
5923;SDS011;2987;50.884;14.818;2022-08-19T08:24:14;20.93;;;17.37;;
5923;SDS011;2987;50.884;14.818;2022-08-19T08:26:41;20.27;;;18.10;;
5923;SDS011;2987;50.884;14.818;2022-08-19T08:29:10;18.73;;;16.77;;
5923;SDS011;2987;50.884;14.818;2022-08-19T08:31:39;20.73;;;18.27;;
5923;SDS011;2987;50.884;14.818;2022-08-19T08:34:07;19.90;;;17.87;;
5923;SDS011;2987;50.884;14.818;2022-08-19T08:36:37;21.10;;;18.80;;
5923;SDS011;2987;50.884;14.818;2022-08-19T08:39:08;20.90;;;17.67;;
5923;SDS011;2987;50.884;14.818;2022-08-19T08:41:43;20.20;;;18.07;;
5923;SDS011;2987;50.884;14.818;2022-08-19T08:44:21;19.60;;;17.50;;
5923;SDS011;2987;50.884;14.818;2022-08-19T08:46:55;19.20;;;17.33;;
5923;SDS011;2987;50.884;14.818;2022-08-19T08:49:32;18.80;;;16.87;;
5923;SDS011;2987;50.884;14.818;2022-08-19T08:54:53;19.47;;;17.47;;
5923;SDS011;2987;50.884;14.818;2022-08-19T08:57:27;20.07;;;17.90;;
5923;SDS011;2987;50.884;14.818;2022-08-19T09:02:30;18.70;;;16.87;;
5923;SDS011;2987;50.884;14.818;2022-08-19T09:04:57;18.37;;;16.50;;
5923;SDS011;2987;50.884;14.818;2022-08-19T09:07:26;17.83;;;14.87;;
5923;SDS011;2987;50.884;14.818;2022-08-19T09:10:22;13.07;;;11.50;;
5923;SDS011;2987;50.884;14.818;2022-08-19T09:18:38;12.53;;;8.30;;
5923;SDS011;2987;50.884;14.818;2022-08-19T09:21:13;8.43;;;7.73;;
5923;SDS011;2987;50.884;14.818;2022-08-19T09:26:08;8.43;;;6.67;;
5923;SDS011;2987;50.884;14.818;2022-08-19T09:28:40;11.57;;;6.77;;
5923;SDS011;2987;50.884;14.818;2022-08-19T09:31:09;6.37;;;5.83;;
5923;SDS011;2987;50.884;14.818;2022-08-19T09:33:41;6.87;;;5.93;;
5923;SDS011;2987;50.884;14.818;2022-08-19T09:36:10;6.97;;;6.27;;
5923;SDS011;2987;50.884;14.818;2022-08-19T09:38:39;7.47;;;6.43;;
5923;SDS011;2987;50.884;14.818;2022-08-19T09:41:12;7.77;;;5.87;;
5923;SDS011;2987;50.884;14.818;2022-08-19T09:43:41;6.13;;;5.53;;
5923;SDS011;2987;50.884;14.818;2022-08-19T09:46:12;8.83;;;5.47;;
5923;SDS011;2987;50.884;14.818;2022-08-19T09:48:38;7.47;;;6.40;;
5923;SDS011;2987;50.884;14.818;2022-08-19T09:51:09;6.67;;;5.83;;
5923;SDS011;2987;50.884;14.818;2022-08-19T09:53:41;8.10;;;5.80;;
5923;SDS011;2987;50.884;14.818;2022-08-19T09:56:09;6.43;;;5.40;;
5923;SDS011;2987;50.884;14.818;2022-08-19T09:58:37;5.47;;;4.97;;
5923;SDS011;2987;50.884;14.818;2022-08-19T10:01:04;5.77;;;5.13;;
5923;SDS011;2987;50.884;14.818;2022-08-19T10:03:32;7.90;;;5.30;;
5923;SDS011;2987;50.884;14.818;2022-08-19T10:06:01;5.43;;;4.93;;
5923;SDS011;2987;50.884;14.818;2022-08-19T10:08:30;5.17;;;4.67;;
5923;SDS011;2987;50.884;14.818;2022-08-19T10:10:59;5.57;;;4.83;;
5923;SDS011;2987;50.884;14.818;2022-08-19T10:13:27;8.13;;;4.87;;
5923;SDS011;2987;50.884;14.818;2022-08-19T10:15:56;5.77;;;5.00;;
5923;SDS011;2987;50.884;14.818;2022-08-19T10:18:30;5.27;;;4.77;;
5923;SDS011;2987;50.884;14.818;2022-08-19T10:21:05;5.80;;;5.20;;
5923;SDS011;2987;50.884;14.818;2022-08-19T10:23:36;5.60;;;5.10;;
5923;SDS011;2987;50.884;14.818;2022-08-19T10:26:04;5.57;;;4.73;;
5923;SDS011;2987;50.884;14.818;2022-08-19T10:28:33;5.07;;;4.67;;
5923;SDS011;2987;50.884;14.818;2022-08-19T10:31:04;5.63;;;5.13;;
5923;SDS011;2987;50.884;14.818;2022-08-19T10:33:34;6.20;;;4.97;;
5923;SDS011;2987;50.884;14.818;2022-08-19T10:36:03;5.83;;;5.33;;
5923;SDS011;2987;50.884;14.818;2022-08-19T10:38:34;5.80;;;5.30;;
5923;SDS011;2987;50.884;14.818;2022-08-19T10:43:56;11.77;;;5.53;;
5923;SDS011;2987;50.884;14.818;2022-08-19T10:46:26;6.73;;;6.13;;
5923;SDS011;2987;50.884;14.818;2022-08-19T10:54:07;6.47;;;5.77;;
5923;SDS011;2987;50.884;14.818;2022-08-19T10:56:33;5.70;;;5.10;;
5923;SDS011;2987;50.884;14.818;2022-08-19T10:59:21;5.80;;;5.30;;
5923;SDS011;2987;50.884;14.818;2022-08-19T11:01:50;6.53;;;5.90;;
5923;SDS011;2987;50.884;14.818;2022-08-19T11:04:17;6.90;;;6.03;;
5923;SDS011;2987;50.884;14.818;2022-08-19T11:06:46;5.90;;;5.40;;
5923;SDS011;2987;50.884;14.818;2022-08-19T11:09:14;6.03;;;5.47;;
5923;SDS011;2987;50.884;14.818;2022-08-19T11:11:46;6.43;;;5.83;;
5923;SDS011;2987;50.884;14.818;2022-08-19T11:14:14;6.90;;;5.80;;
5923;SDS011;2987;50.884;14.818;2022-08-19T11:16:44;9.33;;;6.10;;
5923;SDS011;2987;50.884;14.818;2022-08-19T11:19:11;7.10;;;6.37;;
5923;SDS011;2987;50.884;14.818;2022-08-19T11:21:40;6.40;;;5.90;;
5923;SDS011;2987;50.884;14.818;2022-08-19T11:24:10;6.20;;;5.60;;
5923;SDS011;2987;50.884;14.818;2022-08-19T11:26:42;8.20;;;5.70;;
5923;SDS011;2987;50.884;14.818;2022-08-19T11:29:11;6.20;;;5.57;;
5923;SDS011;2987;50.884;14.818;2022-08-19T11:31:40;6.20;;;5.43;;
5923;SDS011;2987;50.884;14.818;2022-08-19T11:34:09;6.63;;;6.03;;
5923;SDS011;2987;50.884;14.818;2022-08-19T11:36:40;7.07;;;6.37;;
5923;SDS011;2987;50.884;14.818;2022-08-19T11:39:11;8.07;;;6.63;;
5923;SDS011;2987;50.884;14.818;2022-08-19T11:41:39;7.50;;;6.87;;
5923;SDS011;2987;50.884;14.818;2022-08-19T11:44:07;7.47;;;6.57;;
5923;SDS011;2987;50.884;14.818;2022-08-19T11:46:34;7.57;;;6.87;;
5923;SDS011;2987;50.884;14.818;2022-08-19T11:49:03;7.50;;;6.80;;
5923;SDS011;2987;50.884;14.818;2022-08-19T11:51:30;8.13;;;7.40;;
5923;SDS011;2987;50.884;14.818;2022-08-19T11:54:00;7.03;;;6.33;;
5923;SDS011;2987;50.884;14.818;2022-08-19T11:56:27;7.83;;;7.13;;
5923;SDS011;2987;50.884;14.818;2022-08-19T11:58:54;8.13;;;7.30;;
5923;SDS011;2987;50.884;14.818;2022-08-19T12:01:23;7.17;;;6.47;;
5923;SDS011;2987;50.884;14.818;2022-08-19T12:03:52;8.87;;;7.50;;
5923;SDS011;2987;50.884;14.818;2022-08-19T12:06:21;9.43;;;7.13;;
5923;SDS011;2987;50.884;14.818;2022-08-19T12:08:51;8.90;;;7.13;;
5923;SDS011;2987;50.884;14.818;2022-08-19T12:11:17;11.80;;;7.83;;
5923;SDS011;2987;50.884;14.818;2022-08-19T12:13:45;8.40;;;7.60;;
5923;SDS011;2987;50.884;14.818;2022-08-19T12:16:12;8.80;;;7.97;;
5923;SDS011;2987;50.884;14.818;2022-08-19T12:18:42;9.70;;;8.63;;
5923;SDS011;2987;50.884;14.818;2022-08-19T12:21:12;9.03;;;8.13;;
5923;SDS011;2987;50.884;14.818;2022-08-19T12:23:40;8.40;;;7.60;;
5923;SDS011;2987;50.884;14.818;2022-08-19T12:26:08;8.27;;;7.20;;
5923;SDS011;2987;50.884;14.818;2022-08-19T12:28:36;9.73;;;8.07;;
5923;SDS011;2987;50.884;14.818;2022-08-19T12:31:03;8.93;;;7.87;;
5923;SDS011;2987;50.884;14.818;2022-08-19T12:33:31;8.47;;;7.67;;
5923;SDS011;2987;50.884;14.818;2022-08-19T12:36:01;7.53;;;6.90;;
5923;SDS011;2987;50.884;14.818;2022-08-19T12:38:31;7.73;;;7.03;;
5923;SDS011;2987;50.884;14.818;2022-08-19T12:41:00;7.10;;;6.40;;
5923;SDS011;2987;50.884;14.818;2022-08-19T12:43:31;6.63;;;6.00;;
5923;SDS011;2987;50.884;14.818;2022-08-19T12:46:00;6.90;;;6.30;;
5923;SDS011;2987;50.884;14.818;2022-08-19T12:48:30;6.40;;;5.60;;
5923;SDS011;2987;50.884;14.818;2022-08-19T12:50:57;6.30;;;5.80;;
5923;SDS011;2987;50.884;14.818;2022-08-19T12:53:23;6.60;;;6.00;;
5923;SDS011;2987;50.884;14.818;2022-08-19T12:55:56;7.33;;;6.63;;
5923;SDS011;2987;50.884;14.818;2022-08-19T12:58:25;7.27;;;6.57;;
5923;SDS011;2987;50.884;14.818;2022-08-19T13:00:53;7.20;;;6.50;;
5923;SDS011;2987;50.884;14.818;2022-08-19T13:03:19;7.30;;;6.70;;
5923;SDS011;2987;50.884;14.818;2022-08-19T13:05:47;6.93;;;6.23;;
5923;SDS011;2987;50.884;14.818;2022-08-19T13:08:16;6.83;;;6.23;;
5923;SDS011;2987;50.884;14.818;2022-08-19T13:10:42;7.53;;;6.80;;
5923;SDS011;2987;50.884;14.818;2022-08-19T13:13:09;8.20;;;6.17;;
5923;SDS011;2987;50.884;14.818;2022-08-19T13:18:28;6.87;;;6.27;;
5923;SDS011;2987;50.884;14.818;2022-08-19T13:20:55;8.07;;;6.63;;
5923;SDS011;2987;50.884;14.818;2022-08-19T13:23:22;8.93;;;7.00;;
5923;SDS011;2987;50.884;14.818;2022-08-19T13:25:56;10.23;;;7.10;;
5923;SDS011;2987;50.884;14.818;2022-08-19T13:28:24;10.57;;;7.40;;
5923;SDS011;2987;50.884;14.818;2022-08-19T13:30:51;9.17;;;8.33;;
5923;SDS011;2987;50.884;14.818;2022-08-19T13:33:37;9.83;;;8.57;;
5923;SDS011;2987;50.884;14.818;2022-08-19T13:36:03;10.57;;;9.57;;
5923;SDS011;2987;50.884;14.818;2022-08-19T13:38:30;9.70;;;8.80;;
5923;SDS011;2987;50.884;14.818;2022-08-19T13:40:57;11.47;;;9.27;;
5923;SDS011;2987;50.884;14.818;2022-08-19T13:43:31;10.20;;;9.20;;
5923;SDS011;2987;50.884;14.818;2022-08-19T13:45:57;10.70;;;9.70;;
5923;SDS011;2987;50.884;14.818;2022-08-19T13:48:24;9.80;;;8.90;;
5923;SDS011;2987;50.884;14.818;2022-08-19T13:50:52;10.03;;;9.13;;
5923;SDS011;2987;50.884;14.818;2022-08-19T13:53:19;11.23;;;10.20;;
5923;SDS011;2987;50.884;14.818;2022-08-19T13:55:46;11.10;;;9.60;;
5923;SDS011;2987;50.884;14.818;2022-08-19T13:58:13;13.07;;;9.40;;
5923;SDS011;2987;50.884;14.818;2022-08-19T14:00:41;9.63;;;8.63;;
5923;SDS011;2987;50.884;14.818;2022-08-19T14:03:09;9.90;;;9.00;;
5923;SDS011;2987;50.884;14.818;2022-08-19T14:05:36;10.53;;;9.50;;
5923;SDS011;2987;50.884;14.818;2022-08-19T14:08:02;11.53;;;9.47;;
5923;SDS011;2987;50.884;14.818;2022-08-19T14:10:29;14.83;;;9.37;;
5923;SDS011;2987;50.884;14.818;2022-08-19T14:12:57;11.03;;;9.30;;
5923;SDS011;2987;50.884;14.818;2022-08-19T14:15:27;9.60;;;8.70;;
5923;SDS011;2987;50.884;14.818;2022-08-19T14:17:54;11.33;;;9.33;;
5923;SDS011;2987;50.884;14.818;2022-08-19T14:20:21;11.27;;;8.90;;
5923;SDS011;2987;50.884;14.818;2022-08-19T14:22:52;11.63;;;9.00;;
5923;SDS011;2987;50.884;14.818;2022-08-19T14:25:21;9.50;;;8.60;;
5923;SDS011;2987;50.884;14.818;2022-08-19T14:27:53;9.77;;;8.77;;
5923;SDS011;2987;50.884;14.818;2022-08-19T14:30:22;10.07;;;8.97;;
5923;SDS011;2987;50.884;14.818;2022-08-19T14:32:54;9.10;;;8.30;;
5923;SDS011;2987;50.884;14.818;2022-08-19T14:35:21;9.80;;;8.87;;
5923;SDS011;2987;50.884;14.818;2022-08-19T14:37:48;9.57;;;8.67;;
5923;SDS011;2987;50.884;14.818;2022-08-19T14:40:16;10.37;;;9.40;;
5923;SDS011;2987;50.884;14.818;2022-08-19T14:42:46;9.30;;;8.40;;
5923;SDS011;2987;50.884;14.818;2022-08-19T14:45:13;9.80;;;8.90;;
5923;SDS011;2987;50.884;14.818;2022-08-19T14:47:40;9.87;;;8.90;;
5923;SDS011;2987;50.884;14.818;2022-08-19T14:50:07;9.93;;;9.03;;
5923;SDS011;2987;50.884;14.818;2022-08-19T14:52:35;9.70;;;8.90;;
5923;SDS011;2987;50.884;14.818;2022-08-19T14:55:01;9.37;;;8.47;;
5923;SDS011;2987;50.884;14.818;2022-08-19T14:57:29;9.90;;;8.93;;
5923;SDS011;2987;50.884;14.818;2022-08-19T14:59:55;9.50;;;8.57;;
5923;SDS011;2987;50.884;14.818;2022-08-19T15:02:22;9.80;;;8.90;;
5923;SDS011;2987;50.884;14.818;2022-08-19T15:04:48;9.97;;;8.87;;
5923;SDS011;2987;50.884;14.818;2022-08-19T15:07:16;9.30;;;8.40;;
5923;SDS011;2987;50.884;14.818;2022-08-19T15:09:42;10.17;;;8.80;;
5923;SDS011;2987;50.884;14.818;2022-08-19T15:12:08;8.97;;;8.07;;
5923;SDS011;2987;50.884;14.818;2022-08-19T15:14:36;9.27;;;8.43;;
5923;SDS011;2987;50.884;14.818;2022-08-19T15:17:04;9.90;;;8.93;;
5923;SDS011;2987;50.884;14.818;2022-08-19T15:19:31;12.00;;;9.60;;
5923;SDS011;2987;50.884;14.818;2022-08-19T15:21:59;9.70;;;8.80;;
5923;SDS011;2987;50.884;14.818;2022-08-19T15:24:25;12.37;;;8.97;;